sensor_id;sensor_type;location;lat;lon;timestamp;pressure;altitude;pressure_sealevel;temperature;humidity
3464;BME280;3551;41.578;24.706;2023-04-19T08:20:46;90667.06;;;10.96;100.00
3464;BME280;3551;41.578;24.706;2023-04-19T08:23:13;90669.13;;;10.88;100.00
3464;BME280;3551;41.578;24.706;2023-04-19T08:25:40;90665.69;;;10.61;100.00
3464;BME280;3551;41.578;24.706;2023-04-19T08:28:07;90662.19;;;10.64;100.00
3464;BME280;3551;41.578;24.706;2023-04-19T08:30:34;90663.47;;;10.83;100.00
3464;BME280;3551;41.578;24.706;2023-04-19T08:33:01;90660.63;;;10.93;100.00
3464;BME280;3551;41.578;24.706;2023-04-19T08:35:28;90664.41;;;10.96;100.00
3464;BME280;3551;41.578;24.706;2023-04-19T08:37:56;90663.34;;;10.90;100.00
3464;BME280;3551;41.578;24.706;2023-04-19T08:40:23;90660.09;;;11.02;100.00
3464;BME280;3551;41.578;24.706;2023-04-19T08:42:50;90658.81;;;11.10;100.00
3464;BME280;3551;41.578;24.706;2023-04-19T08:45:18;90662.97;;;11.14;100.00
3464;BME280;3551;41.578;24.706;2023-04-19T08:47:46;90660.75;;;11.09;100.00
3464;BME280;3551;41.578;24.706;2023-04-19T08:50:14;90661.53;;;11.06;100.00
3464;BME280;3551;41.578;24.706;2023-04-19T08:52:42;90655.03;;;11.07;100.00
3464;BME280;3551;41.578;24.706;2023-04-19T08:55:11;90661.41;;;11.17;100.00
3464;BME280;3551;41.578;24.706;2023-04-19T08:57:38;90651.91;;;11.12;100.00
3464;BME280;3551;41.578;24.706;2023-04-19T09:00:05;90659.94;;;11.12;100.00
3464;BME280;3551;41.578;24.706;2023-04-19T09:02:44;90660.94;;;11.22;100.00
3464;BME280;3551;41.578;24.706;2023-04-19T09:05:12;90662.25;;;11.10;100.00
3464;BME280;3551;41.578;24.706;2023-04-19T09:07:39;90667.03;;;11.22;100.00
3464;BME280;3551;41.578;24.706;2023-04-19T09:10:07;90667.81;;;11.23;100.00
3464;BME280;3551;41.578;24.706;2023-04-19T09:12:40;90661.09;;;11.35;100.00
3464;BME280;3551;41.578;24.706;2023-04-19T09:15:08;90660.16;;;11.45;100.00
3464;BME280;3551;41.578;24.706;2023-04-19T09:17:36;90664.84;;;11.41;100.00
3464;BME280;3551;41.578;24.706;2023-04-19T09:20:04;90667.66;;;11.53;100.00
3464;BME280;3551;41.578;24.706;2023-04-19T09:22:31;90667.88;;;11.62;100.00
3464;BME280;3551;41.578;24.706;2023-04-19T09:24:59;90667.78;;;11.69;100.00
3464;BME280;3551;41.578;24.706;2023-04-19T09:30:30;90672.72;;;11.71;100.00
3464;BME280;3551;41.578;24.706;2023-04-19T09:33:02;90672.19;;;11.79;100.00
3464;BME280;3551;41.578;24.706;2023-04-19T09:35:39;90667.66;;;11.76;100.00
3464;BME280;3551;41.578;24.706;2023-04-19T09:38:06;90667.25;;;11.78;100.00
3464;BME280;3551;41.578;24.706;2023-04-19T09:40:33;90668.31;;;11.61;100.00
3464;BME280;3551;41.578;24.706;2023-04-19T09:43:00;90668.47;;;11.73;100.00
3464;BME280;3551;41.578;24.706;2023-04-19T09:45:28;90662.06;;;11.67;100.00
3464;BME280;3551;41.578;24.706;2023-04-19T09:48:05;90660.97;;;11.18;100.00
3464;BME280;3551;41.578;24.706;2023-04-19T09:50:32;90666.59;;;11.01;100.00
3464;BME280;3551;41.578;24.706;2023-04-19T09:52:59;90669.56;;;11.06;100.00
3464;BME280;3551;41.578;24.706;2023-04-19T09:55:27;90660.97;;;10.95;100.00
3464;BME280;3551;41.578;24.706;2023-04-19T09:57:54;90661.69;;;11.22;100.00
3464;BME280;3551;41.578;24.706;2023-04-19T10:00:21;90658.47;;;11.08;100.00
3464;BME280;3551;41.578;24.706;2023-04-19T10:02:50;90664.75;;;10.98;100.00
3464;BME280;3551;41.578;24.706;2023-04-19T10:05:19;90661.50;;;11.10;100.00
3464;BME280;3551;41.578;24.706;2023-04-19T10:07:46;90659.63;;;11.30;100.00
3464;BME280;3551;41.578;24.706;2023-04-19T10:10:13;90661.25;;;11.47;100.00
3464;BME280;3551;41.578;24.706;2023-04-19T10:12:41;90657.41;;;11.48;100.00
3464;BME280;3551;41.578;24.706;2023-04-19T10:15:09;90657.94;;;11.63;100.00
3464;BME280;3551;41.578;24.706;2023-04-19T10:17:37;90656.00;;;11.63;100.00
3464;BME280;3551;41.578;24.706;2023-04-19T10:20:09;90652.28;;;11.57;100.00
3464;BME280;3551;41.578;24.706;2023-04-19T10:22:38;90653.34;;;11.63;100.00
3464;BME280;3551;41.578;24.706;2023-04-19T10:25:12;90644.03;;;11.48;100.00
3464;BME280;3551;41.578;24.706;2023-04-19T10:27:40;90649.34;;;11.52;100.00
3464;BME280;3551;41.578;24.706;2023-04-19T10:30:15;90645.66;;;11.42;100.00
3464;BME280;3551;41.578;24.706;2023-04-19T10:32:43;90641.59;;;11.34;100.00
3464;BME280;3551;41.578;24.706;2023-04-19T10:35:18;90637.22;;;11.67;100.00
3464;BME280;3551;41.578;24.706;2023-04-19T10:38:01;90632.16;;;11.92;100.00
3464;BME280;3551;41.578;24.706;2023-04-19T10:43:13;90631.31;;;12.34;100.00
3464;BME280;3551;41.578;24.706;2023-04-19T10:45:40;90628.13;;;12.39;100.00
3464;BME280;3551;41.578;24.706;2023-04-19T10:48:07;90626.41;;;12.49;100.00
3464;BME280;3551;41.578;24.706;2023-04-19T10:50:59;90630.25;;;12.48;100.00
3464;BME280;3551;41.578;24.706;2023-04-19T10:53:42;90618.59;;;12.19;100.00
3464;BME280;3551;41.578;24.706;2023-04-19T10:56:09;90621.41;;;12.31;100.00
3464;BME280;3551;41.578;24.706;2023-04-19T11:01:34;90613.00;;;12.65;100.00
3464;BME280;3551;41.578;24.706;2023-04-19T11:04:02;90615.56;;;13.05;100.00
3464;BME280;3551;41.578;24.706;2023-04-19T11:06:30;90615.88;;;12.74;100.00
3464;BME280;3551;41.578;24.706;2023-04-19T11:08:58;90611.78;;;12.86;100.00
3464;BME280;3551;41.578;24.706;2023-04-19T11:11:31;90615.22;;;12.86;100.00
3464;BME280;3551;41.578;24.706;2023-04-19T11:13:58;90607.41;;;12.76;100.00
3464;BME280;3551;41.578;24.706;2023-04-19T11:16:26;90609.41;;;12.72;100.00
3464;BME280;3551;41.578;24.706;2023-04-19T11:18:53;90603.56;;;12.77;100.00
3464;BME280;3551;41.578;24.706;2023-04-19T11:21:20;90603.16;;;12.43;100.00
3464;BME280;3551;41.578;24.706;2023-04-19T11:23:49;90597.81;;;12.59;100.00
3464;BME280;3551;41.578;24.706;2023-04-19T11:26:30;90605.22;;;12.55;100.00
3464;BME280;3551;41.578;24.706;2023-04-19T11:28:57;90605.88;;;12.59;100.00
3464;BME280;3551;41.578;24.706;2023-04-19T11:31:24;90602.03;;;12.60;100.00
3464;BME280;3551;41.578;24.706;2023-04-19T11:33:51;90604.78;;;12.56;100.00
3464;BME280;3551;41.578;24.706;2023-04-19T11:36:18;90613.63;;;12.37;100.00
3464;BME280;3551;41.578;24.706;2023-04-19T11:38:46;90611.19;;;12.07;100.00
3464;BME280;3551;41.578;24.706;2023-04-19T11:41:14;90602.84;;;12.21;100.00
3464;BME280;3551;41.578;24.706;2023-04-19T11:43:40;90596.66;;;12.24;100.00
3464;BME280;3551;41.578;24.706;2023-04-19T11:46:09;90596.47;;;12.34;100.00
3464;BME280;3551;41.578;24.706;2023-04-19T11:48:36;90597.56;;;12.53;100.00
3464;BME280;3551;41.578;24.706;2023-04-19T11:51:03;90597.44;;;12.24;100.00
3464;BME280;3551;41.578;24.706;2023-04-19T11:53:30;90598.91;;;12.45;100.00
3464;BME280;3551;41.578;24.706;2023-04-19T11:56:02;90600.53;;;12.23;100.00
3464;BME280;3551;41.578;24.706;2023-04-19T11:58:31;90591.28;;;12.08;100.00
3464;BME280;3551;41.578;24.706;2023-04-19T12:01:01;90597.16;;;12.19;100.00
3464;BME280;3551;41.578;24.706;2023-04-19T12:03:30;90589.66;;;12.30;100.00
3464;BME280;3551;41.578;24.706;2023-04-19T12:05:57;90578.44;;;12.35;100.00
3464;BME280;3551;41.578;24.706;2023-04-19T12:08:31;90580.47;;;12.47;100.00
3464;BME280;3551;41.578;24.706;2023-04-19T12:10:58;90586.25;;;12.62;100.00
3464;BME280;3551;41.578;24.706;2023-04-19T12:13:26;90584.44;;;12.75;100.00
3464;BME280;3551;41.578;24.706;2023-04-19T12:15:57;90579.06;;;12.75;100.00
3464;BME280;3551;41.578;24.706;2023-04-19T12:18:24;90577.28;;;12.84;100.00
3464;BME280;3551;41.578;24.706;2023-04-19T12:20:51;90578.06;;;12.69;100.00
3464;BME280;3551;41.578;24.706;2023-04-19T12:23:19;90589.50;;;12.37;100.00
3464;BME280;3551;41.578;24.706;2023-04-19T12:25:46;90584.47;;;12.03;100.00
3464;BME280;3551;41.578;24.706;2023-04-19T12:28:13;90586.56;;;11.76;100.00
3464;BME280;3551;41.578;24.706;2023-04-19T12:30:40;90582.22;;;11.82;100.00
3464;BME280;3551;41.578;24.706;2023-04-19T12:33:09;90583.63;;;11.67;100.00
3464;BME280;3551;41.578;24.706;2023-04-19T12:35:36;90584.91;;;11.82;100.00
3464;BME280;3551;41.578;24.706;2023-04-19T12:38:06;90583.28;;;11.45;100.00
3464;BME280;3551;41.578;24.706;2023-04-19T12:40:33;90586.59;;;10.87;100.00
3464;BME280;3551;41.578;24.706;2023-04-19T12:43:00;90588.84;;;11.11;100.00
3464;BME280;3551;41.578;24.706;2023-04-19T12:45:27;90588.84;;;11.54;100.00
3464;BME280;3551;41.578;24.706;2023-04-19T12:47:54;90587.00;;;11.51;100.00
3464;BME280;3551;41.578;24.706;2023-04-19T12:50:23;90593.44;;;11.34;100.00
3464;BME280;3551;41.578;24.706;2023-04-19T12:52:50;90588.84;;;11.35;100.00
3464;BME280;3551;41.578;24.706;2023-04-19T12:55:18;90583.47;;;11.35;100.00
3464;BME280;3551;41.578;24.706;2023-04-19T12:57:44;90582.41;;;11.52;100.00
3464;BME280;3551;41.578;24.706;2023-04-19T13:00:13;90602.44;;;11.44;100.00
3464;BME280;3551;41.578;24.706;2023-04-19T13:02:40;90596.59;;;11.29;100.00
3464;BME280;3551;41.578;24.706;2023-04-19T13:05:07;90603.66;;;11.39;100.00
3464;BME280;3551;41.578;24.706;2023-04-19T13:07:35;90605.28;;;11.33;100.00
3464;BME280;3551;41.578;24.706;2023-04-19T13:10:02;90604.41;;;11.40;100.00
3464;BME280;3551;41.578;24.706;2023-04-19T13:12:29;90611.03;;;11.55;100.00
3464;BME280;3551;41.578;24.706;2023-04-19T13:14:58;90619.41;;;11.57;100.00
3464;BME280;3551;41.578;24.706;2023-04-19T13:17:25;90622.53;;;11.09;100.00
3464;BME280;3551;41.578;24.706;2023-04-19T13:19:52;90616.16;;;11.03;100.00
3464;BME280;3551;41.578;24.706;2023-04-19T13:22:19;90617.84;;;10.66;100.00
3464;BME280;3551;41.578;24.706;2023-04-19T13:24:47;90620.31;;;10.54;100.00
3464;BME280;3551;41.578;24.706;2023-04-19T13:27:13;90633.34;;;10.52;100.00
3464;BME280;3551;41.578;24.706;2023-04-19T13:29:40;90626.25;;;10.42;100.00
3464;BME280;3551;41.578;24.706;2023-04-19T13:32:07;90628.03;;;10.22;100.00
3464;BME280;3551;41.578;24.706;2023-04-19T13:34:36;90622.78;;;10.14;100.00
3464;BME280;3551;41.578;24.706;2023-04-19T13:37:03;90632.09;;;10.33;100.00
3464;BME280;3551;41.578;24.706;2023-04-19T13:39:30;90633.19;;;10.36;100.00
3464;BME280;3551;41.578;24.706;2023-04-19T13:41:58;90641.34;;;10.52;100.00
3464;BME280;3551;41.578;24.706;2023-04-19T13:44:26;90645.81;;;10.35;100.00
3464;BME280;3551;41.578;24.706;2023-04-19T13:46:53;90647.25;;;10.09;100.00
3464;BME280;3551;41.578;24.706;2023-04-19T13:49:19;90641.91;;;10.09;100.00
3464;BME280;3551;41.578;24.706;2023-04-19T13:51:46;90655.91;;;10.21;100.00
3464;BME280;3551;41.578;24.706;2023-04-19T13:54:12;90651.41;;;10.14;100.00
3464;BME280;3551;41.578;24.706;2023-04-19T13:56:41;90660.81;;;10.26;100.00
3464;BME280;3551;41.578;24.706;2023-04-19T13:59:09;90659.34;;;10.21;100.00
3464;BME280;3551;41.578;24.706;2023-04-19T14:01:36;90659.16;;;10.35;100.00
3464;BME280;3551;41.578;24.706;2023-04-19T14:04:03;90658.19;;;10.22;100.00
3464;BME280;3551;41.578;24.706;2023-04-19T14:06:30;90661.84;;;10.01;100.00
3464;BME280;3551;41.578;24.706;2023-04-19T14:08:56;90657.69;;;9.97;100.00
3464;BME280;3551;41.578;24.706;2023-04-19T14:11:23;90657.34;;;9.61;100.00
3464;BME280;3551;41.578;24.706;2023-04-19T14:13:51;90657.66;;;9.67;100.00
3464;BME280;3551;41.578;24.706;2023-04-19T14:16:20;90656.00;;;9.80;100.00
3464;BME280;3551;41.578;24.706;2023-04-19T14:18:48;90657.34;;;9.95;100.00
3464;BME280;3551;41.578;24.706;2023-04-19T14:21:15;90652.28;;;10.04;100.00
3464;BME280;3551;41.578;24.706;2023-04-19T14:23:42;90656.38;;;10.15;100.00
3464;BME280;3551;41.578;24.706;2023-04-19T14:26:08;90655.50;;;10.22;100.00
3464;BME280;3551;41.578;24.706;2023-04-19T14:28:35;90667.00;;;10.19;100.00
3464;BME280;3551;41.578;24.706;2023-04-19T14:31:02;90666.84;;;10.33;100.00
3464;BME280;3551;41.578;24.706;2023-04-19T14:33:30;90668.09;;;10.22;100.00
3464;BME280;3551;41.578;24.706;2023-04-19T14:35:57;90671.03;;;10.00;100.00
3464;BME280;3551;41.578;24.706;2023-04-19T14:38:23;90665.69;;;10.00;100.00
3464;BME280;3551;41.578;24.706;2023-04-19T14:40:50;90668.88;;;10.22;100.00
3464;BME280;3551;41.578;24.706;2023-04-19T14:43:17;90664.72;;;10.18;100.00
3464;BME280;3551;41.578;24.706;2023-04-19T14:45:46;90669.94;;;10.28;100.00
3464;BME280;3551;41.578;24.706;2023-04-19T14:48:13;90673.25;;;10.05;100.00
3464;BME280;3551;41.578;24.706;2023-04-19T14:50:41;90671.59;;;10.19;100.00
3464;BME280;3551;41.578;24.706;2023-04-19T14:53:08;90681.34;;;10.32;100.00
3464;BME280;3551;41.578;24.706;2023-04-19T14:55:35;90669.00;;;9.78;100.00
3464;BME280;3551;41.578;24.706;2023-04-19T14:58:02;90674.56;;;9.90;100.00
3464;BME280;3551;41.578;24.706;2023-04-19T15:00:29;90667.91;;;9.72;100.00
3464;BME280;3551;41.578;24.706;2023-04-19T15:02:55;90673.75;;;9.59;100.00
3464;BME280;3551;41.578;24.706;2023-04-19T15:05:24;90664.50;;;9.34;100.00
3464;BME280;3551;41.578;24.706;2023-04-19T15:07:53;90676.31;;;9.29;100.00
3464;BME280;3551;41.578;24.706;2023-04-19T15:10:19;90675.88;;;9.38;100.00
3464;BME280;3551;41.578;24.706;2023-04-19T15:12:46;90671.34;;;9.31;100.00
3464;BME280;3551;41.578;24.706;2023-04-19T15:15:13;90680.84;;;9.36;100.00
3464;BME280;3551;41.578;24.706;2023-04-19T15:17:39;90672.75;;;9.43;100.00
3464;BME280;3551;41.578;24.706;2023-04-19T15:20:07;90685.25;;;9.53;100.00
3464;BME280;3551;41.578;24.706;2023-04-19T15:22:33;90678.88;;;9.40;100.00
3464;BME280;3551;41.578;24.706;2023-04-19T15:25:02;90690.28;;;9.44;100.00
3464;BME280;3551;41.578;24.706;2023-04-19T15:27:28;90691.59;;;9.66;100.00
3464;BME280;3551;41.578;24.706;2023-04-19T15:29:55;90695.53;;;9.54;100.00
3464;BME280;3551;41.578;24.706;2023-04-19T15:32:22;90700.53;;;9.49;100.00
3464;BME280;3551;41.578;24.706;2023-04-19T15:34:48;90699.09;;;9.41;100.00
3464;BME280;3551;41.578;24.706;2023-04-19T15:37:15;90694.81;;;9.10;100.00
3464;BME280;3551;41.578;24.706;2023-04-19T15:39:42;90712.31;;;9.11;100.00
3464;BME280;3551;41.578;24.706;2023-04-19T15:42:10;90708.16;;;9.06;100.00
3464;BME280;3551;41.578;24.706;2023-04-19T15:44:36;90709.91;;;9.23;100.00
3464;BME280;3551;41.578;24.706;2023-04-19T15:50:25;90717.41;;;9.42;100.00
3464;BME280;3551;41.578;24.706;2023-04-19T15:52:51;90726.19;;;9.39;100.00
3464;BME280;3551;41.578;24.706;2023-04-19T15:55:18;90721.41;;;9.17;100.00
3464;BME280;3551;41.578;24.706;2023-04-19T15:57:46;90722.81;;;9.28;100.00
3464;BME280;3551;41.578;24.706;2023-04-19T16:00:14;90716.69;;;9.31;100.00
3464;BME280;3551;41.578;24.706;2023-04-19T16:02:41;90713.31;;;9.31;100.00
3464;BME280;3551;41.578;24.706;2023-04-19T16:05:07;90724.03;;;9.65;100.00
3464;BME280;3551;41.578;24.706;2023-04-19T16:07:34;90721.81;;;9.59;100.00
3464;BME280;3551;41.578;24.706;2023-04-19T16:10:01;90715.03;;;9.51;100.00
3464;BME280;3551;41.578;24.706;2023-04-19T16:12:28;90722.50;;;9.63;100.00
3464;BME280;3551;41.578;24.706;2023-04-19T16:14:56;90711.81;;;9.67;100.00
3464;BME280;3551;41.578;24.706;2023-04-19T16:17:23;90720.25;;;9.62;100.00
3464;BME280;3551;41.578;24.706;2023-04-19T16:19:49;90719.50;;;9.61;100.00
3464;BME280;3551;41.578;24.706;2023-04-19T16:22:16;90720.22;;;9.66;100.00
3464;BME280;3551;41.578;24.706;2023-04-19T16:24:43;90715.91;;;9.34;100.00
3464;BME280;3551;41.578;24.706;2023-04-19T16:27:10;90721.13;;;9.04;100.00
3464;BME280;3551;41.578;24.706;2023-04-19T16:29:37;90726.06;;;9.05;100.00
3464;BME280;3551;41.578;24.706;2023-04-19T16:32:06;90720.16;;;9.28;100.00
3464;BME280;3551;41.578;24.706;2023-04-19T16:34:34;90726.28;;;9.25;100.00
3464;BME280;3551;41.578;24.706;2023-04-19T16:37:01;90725.81;;;8.89;100.00
3464;BME280;3551;41.578;24.706;2023-04-19T16:39:28;90732.28;;;8.88;100.00
3464;BME280;3551;41.578;24.706;2023-04-19T16:41:55;90736.06;;;8.94;100.00
3464;BME280;3551;41.578;24.706;2023-04-19T16:44:21;90731.72;;;9.15;100.00
3464;BME280;3551;41.578;24.706;2023-04-19T16:46:48;90736.25;;;9.21;100.00
3464;BME280;3551;41.578;24.706;2023-04-19T16:49:16;90731.91;;;8.86;100.00
3464;BME280;3551;41.578;24.706;2023-04-19T16:51:43;90736.94;;;8.77;100.00
3464;BME280;3551;41.578;24.706;2023-04-19T16:54:10;90746.06;;;8.76;100.00
3464;BME280;3551;41.578;24.706;2023-04-19T16:56:37;90746.38;;;8.89;100.00
3464;BME280;3551;41.578;24.706;2023-04-19T16:59:03;90740.50;;;8.53;100.00
3464;BME280;3551;41.578;24.706;2023-04-19T17:01:30;90741.94;;;8.65;100.00
3464;BME280;3551;41.578;24.706;2023-04-19T17:03:57;90739.69;;;8.60;100.00
3464;BME280;3551;41.578;24.706;2023-04-19T17:06:25;90749.38;;;8.94;100.00
3464;BME280;3551;41.578;24.706;2023-04-19T17:08:51;90755.41;;;9.02;100.00
3464;BME280;3551;41.578;24.706;2023-04-19T17:11:18;90762.03;;;9.35;100.00
3464;BME280;3551;41.578;24.706;2023-04-19T17:13:45;90761.38;;;9.24;100.00
3464;BME280;3551;41.578;24.706;2023-04-19T17:16:11;90766.16;;;9.43;100.00
3464;BME280;3551;41.578;24.706;2023-04-19T17:18:38;90766.75;;;9.17;100.00
3464;BME280;3551;41.578;24.706;2023-04-19T17:21:05;90772.69;;;9.38;100.00
3464;BME280;3551;41.578;24.706;2023-04-19T17:23:33;90775.03;;;8.71;100.00
3464;BME280;3551;41.578;24.706;2023-04-19T17:26:00;90778.94;;;9.18;100.00
3464;BME280;3551;41.578;24.706;2023-04-19T17:28:26;90791.78;;;9.33;100.00
3464;BME280;3551;41.578;24.706;2023-04-19T17:30:53;90795.50;;;9.46;100.00
3464;BME280;3551;41.578;24.706;2023-04-19T17:33:20;90795.53;;;9.43;100.00
3464;BME280;3551;41.578;24.706;2023-04-19T17:35:46;90800.38;;;9.58;100.00
3464;BME280;3551;41.578;24.706;2023-04-19T17:38:13;90799.25;;;9.52;100.00
3464;BME280;3551;41.578;24.706;2023-04-19T17:40:41;90799.66;;;9.51;100.00
3464;BME280;3551;41.578;24.706;2023-04-19T17:43:09;90808.78;;;9.57;100.00
3464;BME280;3551;41.578;24.706;2023-04-19T17:45:36;90815.63;;;9.58;100.00
3464;BME280;3551;41.578;24.706;2023-04-19T17:48:02;90808.34;;;9.62;100.00
3464;BME280;3551;41.578;24.706;2023-04-19T17:50:29;90809.91;;;9.56;100.00
3464;BME280;3551;41.578;24.706;2023-04-19T17:52:56;90817.13;;;9.59;100.00
3464;BME280;3551;41.578;24.706;2023-04-19T17:55:23;90811.91;;;9.45;100.00
3464;BME280;3551;41.578;24.706;2023-04-19T17:57:52;90816.50;;;9.44;100.00
3464;BME280;3551;41.578;24.706;2023-04-19T18:00:18;90816.16;;;9.39;100.00
3464;BME280;3551;41.578;24.706;2023-04-19T18:02:45;90816.66;;;9.20;100.00
3464;BME280;3551;41.578;24.706;2023-04-19T18:05:12;90811.28;;;9.27;100.00
3464;BME280;3551;41.578;24.706;2023-04-19T18:07:39;90814.63;;;9.38;100.00
3464;BME280;3551;41.578;24.706;2023-04-19T18:10:06;90819.13;;;9.48;100.00
3464;BME280;3551;41.578;24.706;2023-04-19T18:12:33;90824.81;;;9.53;100.00
3464;BME280;3551;41.578;24.706;2023-04-19T18:15:01;90824.59;;;9.30;100.00
3464;BME280;3551;41.578;24.706;2023-04-19T18:17:28;90825.28;;;9.38;100.00
3464;BME280;3551;41.578;24.706;2023-04-19T18:19:55;90823.84;;;9.26;100.00
3464;BME280;3551;41.578;24.706;2023-04-19T18:22:22;90828.38;;;9.36;100.00
3464;BME280;3551;41.578;24.706;2023-04-19T18:24:48;90831.38;;;9.42;100.00
3464;BME280;3551;41.578;24.706;2023-04-19T18:27:17;90836.78;;;9.31;100.00
3464;BME280;3551;41.578;24.706;2023-04-19T18:29:44;90837.16;;;9.33;100.00
3464;BME280;3551;41.578;24.706;2023-04-19T18:32:12;90834.94;;;9.25;100.00
3464;BME280;3551;41.578;24.706;2023-04-19T18:34:38;90839.81;;;9.33;100.00
3464;BME280;3551;41.578;24.706;2023-04-19T18:37:12;90844.03;;;9.31;100.00
3464;BME280;3551;41.578;24.706;2023-04-19T18:39:39;90843.94;;;9.45;100.00
3464;BME280;3551;41.578;24.706;2023-04-19T18:42:06;90840.09;;;9.46;100.00
3464;BME280;3551;41.578;24.706;2023-04-19T18:44:33;90841.25;;;9.48;100.00
3464;BME280;3551;41.578;24.706;2023-04-19T18:47:00;90846.19;;;9.50;100.00
3464;BME280;3551;41.578;24.706;2023-04-19T18:49:28;90849.63;;;9.47;100.00
3464;BME280;3551;41.578;24.706;2023-04-19T18:51:55;90846.16;;;9.53;100.00
3464;BME280;3551;41.578;24.706;2023-04-19T18:54:21;90848.09;;;9.46;100.00
3464;BME280;3551;41.578;24.706;2023-04-19T18:56:48;90848.22;;;9.28;100.00
3464;BME280;3551;41.578;24.706;2023-04-19T18:59:15;90845.13;;;8.64;100.00
3464;BME280;3551;41.578;24.706;2023-04-19T19:01:42;90845.94;;;8.54;100.00
3464;BME280;3551;41.578;24.706;2023-04-19T19:04:09;90847.16;;;8.25;100.00
3464;BME280;3551;41.578;24.706;2023-04-19T19:06:38;90845.25;;;8.25;100.00
3464;BME280;3551;41.578;24.706;2023-04-19T19:09:04;90852.38;;;8.64;100.00
3464;BME280;3551;41.578;24.706;2023-04-19T19:11:31;90849.44;;;8.37;100.00
3464;BME280;3551;41.578;24.706;2023-04-19T19:13:58;90850.22;;;8.16;100.00
3464;BME280;3551;41.578;24.706;2023-04-19T19:16:26;90847.91;;;8.18;100.00
3464;BME280;3551;41.578;24.706;2023-04-19T19:18:52;90845.19;;;8.54;100.00
3464;BME280;3551;41.578;24.706;2023-04-19T19:21:20;90848.25;;;8.45;100.00
3464;BME280;3551;41.578;24.706;2023-04-19T19:23:48;90853.88;;;8.68;100.00
3464;BME280;3551;41.578;24.706;2023-04-19T19:26:14;90843.91;;;8.86;100.00
3464;BME280;3551;41.578;24.706;2023-04-19T19:28:41;90849.94;;;8.94;100.00
3464;BME280;3551;41.578;24.706;2023-04-19T19:31:08;90853.31;;;9.05;100.00
3464;BME280;3551;41.578;24.706;2023-04-19T19:33:34;90846.81;;;9.10;100.00
3464;BME280;3551;41.578;24.706;2023-04-19T19:36:01;90846.06;;;9.09;100.00
3464;BME280;3551;41.578;24.706;2023-04-19T19:38:28;90844.94;;;9.07;100.00
3464;BME280;3551;41.578;24.706;2023-04-19T19:40:57;90841.13;;;9.08;100.00
3464;BME280;3551;41.578;24.706;2023-04-19T19:43:23;90841.81;;;9.22;100.00
3464;BME280;3551;41.578;24.706;2023-04-19T19:45:50;90835.06;;;9.00;100.00
3464;BME280;3551;41.578;24.706;2023-04-19T19:48:16;90835.13;;;8.89;100.00
3464;BME280;3551;41.578;24.706;2023-04-19T19:50:43;90841.66;;;8.74;100.00
3464;BME280;3551;41.578;24.706;2023-04-19T19:53:10;90840.47;;;8.89;100.00
3464;BME280;3551;41.578;24.706;2023-04-19T19:55:36;90844.19;;;9.02;100.00
3464;BME280;3551;41.578;24.706;2023-04-19T19:58:04;90842.28;;;9.07;100.00
3464;BME280;3551;41.578;24.706;2023-04-19T20:00:31;90841.94;;;9.01;100.00
3464;BME280;3551;41.578;24.706;2023-04-19T20:02:58;90848.69;;;9.16;100.00
3464;BME280;3551;41.578;24.706;2023-04-19T20:05:25;90846.75;;;9.24;100.00
3464;BME280;3551;41.578;24.706;2023-04-19T20:07:52;90851.81;;;9.08;100.00
3464;BME280;3551;41.578;24.706;2023-04-19T20:10:29;90851.81;;;9.04;100.00
3464;BME280;3551;41.578;24.706;2023-04-19T20:12:55;90846.88;;;8.99;100.00
3464;BME280;3551;41.578;24.706;2023-04-19T20:15:24;90852.19;;;9.06;100.00
3464;BME280;3551;41.578;24.706;2023-04-19T20:17:51;90854.81;;;9.13;100.00
3464;BME280;3551;41.578;24.706;2023-04-19T20:20:17;90851.72;;;9.18;100.00
3464;BME280;3551;41.578;24.706;2023-04-19T20:22:44;90853.28;;;9.16;100.00
3464;BME280;3551;41.578;24.706;2023-04-19T20:25:12;90844.94;;;9.03;100.00
3464;BME280;3551;41.578;24.706;2023-04-19T20:27:39;90849.50;;;9.06;100.00
3464;BME280;3551;41.578;24.706;2023-04-19T20:30:06;90838.88;;;8.99;100.00
3464;BME280;3551;41.578;24.706;2023-04-19T20:32:34;90840.38;;;9.03;100.00
3464;BME280;3551;41.578;24.706;2023-04-19T20:35:01;90838.84;;;9.02;100.00
3464;BME280;3551;41.578;24.706;2023-04-19T20:37:32;90851.50;;;8.88;100.00
3464;BME280;3551;41.578;24.706;2023-04-19T20:40:01;90854.56;;;8.86;100.00
3464;BME280;3551;41.578;24.706;2023-04-19T20:42:29;90857.59;;;8.88;100.00
3464;BME280;3551;41.578;24.706;2023-04-19T20:44:56;90859.16;;;8.82;100.00
3464;BME280;3551;41.578;24.706;2023-04-19T20:47:23;90865.00;;;8.49;100.00
3464;BME280;3551;41.578;24.706;2023-04-19T20:49:51;90859.69;;;8.35;100.00
3464;BME280;3551;41.578;24.706;2023-04-19T20:52:18;90860.75;;;8.59;100.00
3464;BME280;3551;41.578;24.706;2023-04-19T20:54:45;90861.88;;;8.68;100.00
3464;BME280;3551;41.578;24.706;2023-04-19T20:57:11;90865.59;;;8.85;100.00
3464;BME280;3551;41.578;24.706;2023-04-19T20:59:39;90859.88;;;8.90;100.00
3464;BME280;3551;41.578;24.706;2023-04-19T21:02:06;90861.38;;;8.94;100.00
3464;BME280;3551;41.578;24.706;2023-04-19T21:04:33;90865.16;;;9.00;100.00
3464;BME280;3551;41.578;24.706;2023-04-19T21:07:01;90859.16;;;8.79;100.00
3464;BME280;3551;41.578;24.706;2023-04-19T21:09:28;90855.34;;;8.87;100.00
3464;BME280;3551;41.578;24.706;2023-04-19T21:11:55;90854.59;;;8.83;100.00
3464;BME280;3551;41.578;24.706;2023-04-19T21:14:22;90860.69;;;8.83;100.00
3464;BME280;3551;41.578;24.706;2023-04-19T21:16:49;90858.38;;;8.85;100.00
3464;BME280;3551;41.578;24.706;2023-04-19T21:19:15;90861.53;;;8.56;100.00
3464;BME280;3551;41.578;24.706;2023-04-19T21:21:42;90861.13;;;8.68;100.00
3464;BME280;3551;41.578;24.706;2023-04-19T21:24:11;90855.38;;;8.76;100.00
3464;BME280;3551;41.578;24.706;2023-04-19T21:26:37;90858.91;;;8.52;100.00
3464;BME280;3551;41.578;24.706;2023-04-19T21:29:04;90857.78;;;8.35;100.00
3464;BME280;3551;41.578;24.706;2023-04-19T21:31:31;90850.56;;;8.32;100.00
3464;BME280;3551;41.578;24.706;2023-04-19T21:33:57;90855.47;;;8.52;100.00
3464;BME280;3551;41.578;24.706;2023-04-19T21:36:24;90851.28;;;8.51;100.00
3464;BME280;3551;41.578;24.706;2023-04-19T21:38:52;90855.06;;;8.60;100.00